Pagrindinis puslapis
METAR-TAF:

METAR-TAF

Oro uostai :

Anchelesas, Filipinai

platuma: 15-11N, ilguma: 120-33E, Aukštis: 148 m

Dabartinis oras

Ataskaita buvo paskelbta 14 minutes, ne 04:00 UTC
Vėjas 6 kt iš Pietų
Temperatūra 32°C
Drėgmė 49%
Slėgis 1014 hPa
Matomumas: 7000 m
Išsisklaidę debesys ne aukštis 2000 ft
Su prošvaistėmis ne aukštis 30000 ft

METAR: RPLC 290400Z 18006KT 7000 SCT020 BKN300 32/20 Q1014 NOSIG RMK A2994

Laikas: 12:14 (04:14 UTC)

Prognozė

Ataskaita buvo paskelbta 5 valandos ir 14 minutes, ne 23:00 UTC
Prognozė galioja nuo 29 metu 00 UTC su 01 metu 06 UTC
Vėjas 6 kt iš Šiaurės/Šiaurės Vakarų
Matomumas 10 km arba daugiau
Mažai debesys ne aukštis 2000 ft
Su prošvaistėmis ne aukštis 30000 ft
Laikinai
nuo 29 metu 00 UTC su 29 metu 06 UTC
Vėjas 8 kt iš Šiaurės/Šiaurės Rytų su gūsio iki 18 kt
Išsisklaidę debesys ne aukštis 2000 ft
Su prošvaistėmis ne aukštis 30000 ft

TAF: RPLC 282300Z 2900/0106 34006KT 9999 FEW020 BKN300 TX31/2906Z TN22/2922Z TEMPO 2900/2906 02008G18KT SCT020 BKN300

Orai ataskaitas ir orų prognozės (METAR, TAF).

turimą stotys yra geltonos ir raudonos taškus žemėlapyje.

Perkelti pele per norėdami pamatyti stoties vardą.

Tada spustelėkite, norėdami matyti oro stebėjimo ir prognozės.

Norėdami pakeisti žemėlapį: spustelėkite ant žalios mygtukų su juodo kryžiaus žemyn,; žalią mygtuką su brūkšneliu, jei norite nutolinti; arba žalių rodyklių gretimoms žemėlapius.


METAR-TAF: